Main page
METAR-TAF:

METAR-TAF

Airports :

Split Airport

Split, Croatia

latitude: 43-32N, longitude: 016-18E, elevation: 19 m

Current weather observation

The report was made 37 minutes ago, at 18:30 UTC
Wind 2 kt from variable directions
Temperature 15°C
Humidity 88%
Pressure 1026 hPa
Visibility 10 km or more
no clouds below 1500 m and no cumulonimbus

METAR: LDSP 131830Z VRB02KT CAVOK 15/13 Q1026 NOSIG

Time: 20:07 (19:07 UTC)

Forecast

The report was made 1 hour and 42 minutes ago, at 17:25 UTC
Forecast valid from 13 at 18 UTC to 14 at 18 UTC
Wind 6 kt from the West/Northwest
Visibility 10 km or more
no clouds below 1500 m and no cumulonimbus
Temporary
from 14 at 08 UTC to 14 at 10 UTC
Wind 10 kt from the Northeast

TAF: LDSP 131725Z 1318/1418 30006KT CAVOK TX21/1412Z TN11/1405Z TEMPO 1408/1410 04010KT

Weather observations and forecasts of more than 4000 airports (METAR and TAF reports).

The available stations are represented by yellow and red dots on the map.

Hover mouse over dot to see the name of the station.

Then click to see weather observations and forecasts.

To change the map : click on the green buttons with a black cross to zoom in, on the green button with a dash to zoom out, or on the green arrows for adjacent maps.


METAR-TAF: